createdAt,value
2023-02-02T06:29:04.828Z,25.20
2023-02-02T06:31:35.442Z,25.20
2023-02-02T06:34:05.939Z,25.30
2023-02-02T06:36:35.321Z,25.20
2023-02-02T06:39:06.431Z,25.30
2023-02-02T06:41:36.226Z,25.50
2023-02-02T06:44:05.567Z,25.60
2023-02-02T06:46:35.005Z,25.60
2023-02-02T06:49:04.411Z,25.50
2023-02-02T06:51:34.207Z,25.50
2023-02-02T06:54:05.457Z,25.50
2023-02-02T06:56:34.791Z,25.30
2023-02-02T06:59:05.377Z,25.30
2023-02-02T07:01:34.956Z,25.30
2023-02-02T07:04:04.367Z,25.20
2023-02-02T07:06:34.297Z,25.10
2023-02-02T07:09:03.901Z,25.00
2023-02-02T07:11:41.664Z,25.00
2023-02-02T07:14:13.638Z,25.10
2023-02-02T07:16:43.037Z,24.90
2023-02-02T07:19:12.411Z,24.80
2023-02-02T07:21:41.814Z,24.60
2023-02-02T07:24:11.255Z,24.40
2023-02-02T07:26:40.803Z,24.40
2023-02-02T07:29:14.709Z,24.40
2023-02-02T07:31:44.289Z,24.40
2023-02-02T07:34:13.729Z,24.50
2023-02-02T07:36:43.377Z,24.60
2023-02-02T07:39:13.469Z,24.50
2023-02-02T07:41:45.237Z,24.30
2023-02-02T07:44:18.480Z,24.20
2023-02-02T07:46:50.400Z,24.20
2023-02-02T07:49:21.753Z,24.20
2023-02-02T07:51:51.166Z,24.30
2023-02-02T07:54:20.606Z,24.20
2023-02-02T07:56:49.958Z,24.00
2023-02-02T07:59:19.423Z,23.80
2023-02-02T08:01:49.212Z,23.90
2023-02-02T08:04:18.906Z,23.90
2023-02-02T08:06:48.629Z,23.80
2023-02-02T08:09:18.024Z,23.80
2023-02-02T08:11:47.413Z,23.70
2023-02-02T08:14:16.978Z,23.70
2023-02-02T08:16:46.393Z,23.50
2023-02-02T08:19:15.854Z,23.40
2023-02-02T08:21:45.238Z,23.30
2023-02-02T08:24:14.599Z,23.20
2023-02-02T08:26:44.005Z,23.10
2023-02-02T16:46:50.489Z,14.40
2023-02-02T16:49:21.350Z,14.30
2023-02-02T16:52:09.634Z,14.30
2023-02-02T16:54:39.372Z,14.20
2023-02-02T16:57:08.762Z,14.00
2023-02-02T16:59:39.532Z,14.10
2023-02-02T17:02:27.253Z,14.20
2023-02-02T17:05:02.080Z,14.30
2023-02-02T17:07:32.199Z,14.20
2023-02-02T17:10:19.702Z,14.20
2023-02-02T17:12:49.442Z,14.10
2023-02-02T17:15:18.839Z,14.20
2023-02-02T17:17:50.677Z,14.20
2023-02-02T17:20:20.387Z,14.10
2023-02-02T17:22:51.500Z,14.00
2023-02-02T17:25:31.478Z,14.00
2023-02-02T17:28:02.436Z,14.10
2023-02-02T17:30:33.155Z,14.10
2023-02-02T17:33:02.969Z,14.10
2023-02-02T17:35:47.231Z,14.20
2023-02-02T17:38:23.121Z,14.20
2023-02-02T17:40:53.174Z,14.30
2023-02-02T17:43:22.710Z,14.20
2023-02-02T17:45:52.445Z,14.20
2023-02-02T17:48:22.483Z,14.10
2023-02-02T17:50:51.944Z,13.90
2023-02-02T17:53:22.124Z,13.80
2023-02-02T17:55:53.450Z,13.80
2023-02-02T17:58:22.810Z,13.50
2023-02-02T18:00:55.349Z,13.50
2023-02-02T18:03:26.337Z,13.60
2023-02-02T18:05:55.796Z,13.50
2023-02-02T18:08:26.214Z,13.40
2023-02-02T18:10:56.832Z,13.30
2023-02-02T18:13:26.324Z,13.20
2023-02-02T18:15:57.503Z,13.30
2023-02-02T18:18:27.016Z,13.20
2023-02-02T18:20:56.813Z,13.20
2023-02-02T18:23:26.163Z,13.30
2023-02-02T18:25:55.745Z,13.30
2023-02-02T18:28:25.276Z,13.40
2023-02-02T18:30:54.712Z,13.40
2023-02-02T18:33:25.105Z,13.30
2023-02-02T18:35:54.440Z,13.30
2023-02-02T18:38:23.787Z,13.30
2023-02-02T18:40:59.347Z,13.10
2023-02-02T18:43:28.791Z,13.10
2023-02-02T18:46:06.123Z,13.10
2023-02-02T18:48:35.484Z,13.00
2023-02-02T18:51:08.573Z,13.00
2023-02-02T18:53:37.891Z,13.10
2023-02-02T18:56:11.265Z,13.00
2023-02-02T18:58:40.718Z,12.80
2023-02-02T19:01:10.299Z,12.80
2023-02-02T19:03:42.149Z,12.70
2023-02-02T19:06:30.035Z,12.70
2023-02-02T19:08:59.431Z,12.80
2023-02-02T19:11:39.518Z,12.80
2023-02-02T19:14:14.449Z,12.70
2023-02-02T19:16:44.294Z,12.70
2023-02-02T19:19:34.976Z,12.50
2023-02-02T19:22:15.826Z,12.50
2023-02-02T19:24:45.173Z,12.40
2023-02-02T19:27:33.994Z,12.30
2023-02-02T19:30:06.011Z,12.30
2023-02-02T19:32:36.410Z,12.20
2023-02-02T19:35:10.172Z,12.30
2023-02-02T19:37:44.864Z,12.30
2023-02-02T19:40:16.161Z,12.30
2023-02-02T19:42:50.226Z,12.30
2023-02-02T19:45:24.247Z,12.10
2023-02-02T19:47:54.116Z,12.20
2023-02-02T19:50:25.470Z,12.30
2023-02-02T19:52:56.138Z,12.30
2023-02-02T19:55:36.985Z,12.30
2023-02-02T19:58:16.049Z,12.40
2023-02-02T20:00:46.496Z,12.20
2023-02-02T20:03:23.104Z,12.20
2023-02-02T20:05:57.461Z,12.10
2023-02-02T20:08:26.885Z,12.10
2023-02-02T20:11:16.205Z,12.00
2023-02-02T20:13:48.136Z,12.00
2023-02-02T20:16:21.915Z,12.10
2023-02-02T20:18:59.432Z,12.20
2023-02-02T20:21:55.032Z,12.10
2023-02-02T20:24:29.499Z,11.90
2023-02-02T20:27:05.027Z,11.90
2023-02-02T20:29:42.970Z,11.90
2023-02-02T20:32:33.283Z,12.00
2023-02-02T20:35:02.999Z,12.00
2023-02-02T20:37:38.326Z,12.10
2023-02-02T20:40:27.799Z,12.10
2023-02-02T20:42:59.493Z,12.10
2023-02-02T20:45:28.945Z,12.20
2023-02-02T20:47:58.308Z,12.40
2023-02-02T20:50:27.952Z,12.30
2023-02-02T20:52:57.539Z,12.30
2023-02-02T20:55:26.967Z,12.40
2023-02-02T20:57:56.370Z,12.40
2023-02-02T21:00:28.835Z,12.30
2023-02-02T21:02:58.260Z,12.10
2023-02-02T21:05:27.687Z,12.30
2023-02-02T21:07:57.111Z,12.30
2023-02-02T21:10:28.019Z,12.30
2023-02-02T21:12:57.571Z,12.20
2023-02-02T21:15:28.034Z,12.20
2023-02-02T21:17:57.386Z,12.30
2023-02-02T21:20:27.045Z,12.50
2023-02-02T21:22:58.446Z,12.70
2023-02-02T21:25:27.835Z,12.80
2023-02-02T21:27:58.208Z,12.80
2023-02-02T21:30:28.331Z,13.00
2023-02-02T21:32:58.220Z,13.00
2023-02-02T21:35:28.460Z,13.30
2023-02-02T21:38:00.005Z,13.20
2023-02-02T21:40:31.583Z,13.40
2023-02-02T21:43:02.089Z,13.50
2023-02-02T21:45:37.246Z,13.60
2023-02-02T21:48:24.980Z,13.70
2023-02-02T21:50:54.691Z,13.60
2023-02-02T21:53:29.053Z,13.60
2023-02-02T21:56:02.679Z,13.60
2023-02-02T21:58:36.365Z,13.70
2023-02-02T22:01:25.833Z,13.70
2023-02-02T22:03:55.297Z,13.90
2023-02-02T22:06:29.889Z,14.00
2023-02-02T22:09:14.687Z,14.10
2023-02-02T22:11:50.132Z,14.10
2023-02-02T22:14:20.179Z,14.30
2023-02-02T22:16:59.948Z,14.20
2023-02-02T22:19:29.301Z,14.20
2023-02-02T22:22:10.416Z,14.30
2023-02-02T22:24:39.744Z,14.50
2023-02-02T22:27:28.050Z,14.70
2023-02-02T22:30:00.214Z,14.50
2023-02-02T22:32:29.707Z,14.70
2023-02-02T22:34:59.088Z,14.70
2023-02-02T22:37:28.434Z,14.80
2023-02-02T22:40:00.610Z,15.00
2023-02-02T22:42:30.563Z,14.90
2023-02-02T22:45:00.087Z,14.70
2023-02-02T22:47:29.512Z,15.00
2023-02-02T22:49:58.871Z,15.40
